Flight Track Log - Related Links

Times and Time Zones

All times are in EDT time to prevent confusion due to time zone crossing. See the DAL454 flight status page for this flight to view local times or setup timezone preferences in your user account.

Time Position Orientation Groundspeed Altitude Reporting Facility
EDT Latitude Longitude Course Direction KTS MPH feet Rate Location/Type
Fri 09:05:26 AM 40.6500 -73.8333 128° Southeast 165 190 1,900  Level New York TRACON
Fri 09:06:26 AM 40.6167 -73.8833 229° Southwest 228 262 4,100 2,633 Climbing New York TRACON
Fri 09:08:00 AM 40.3637 -73.3039 131° Southeast  Level FlightAware Approximate
Fri 09:08:26 AM 40.5428 -73.7506 126° Southeast 299 344 9,800  Level New York Center
Fri 09:09:00 AM 40.2852 -73.1806 128° Southeast  Level FlightAware Approximate
Fri 09:09:26 AM 40.4958 -73.6258 116° Southeast 328 377 11,700  Level New York Center
Fri 09:10:00 AM 40.2096 -73.0542 128° Southeast  Level FlightAware Approximate
Fri 09:10:26 AM 40.4486 -73.5147 119° Southeast 372 428 14,200  Level New York Center
Fri 09:11:26 AM 40.3850 -73.3731 120° Southeast 405 466 16,000 1,850 Climbing New York Center
Fri 09:12:26 AM 40.3256 -73.2431 121° Southeast 418 481 17,900 1,900 Climbing New York Center
Fri 09:13:26 AM 40.2469 -73.1097 128° Southeast 440 506 19,800 1,950 Climbing New York Center
Fri 09:14:26 AM 40.1661 -72.9767 128° Southeast 457 526 21,800 1,950 Climbing New York Center
Fri 09:15:26 AM 40.0853 -72.8356 127° Southeast 470 541 23,700 1,900 Climbing New York Center
Fri 09:16:26 AM 40.0022 -72.6950 128° Southeast 483 556 25,600 1,750 Climbing New York Center
Fri 09:17:26 AM 39.9150 -72.5572 130° Southeast 488 562 27,200 1,450 Climbing New York Center
Fri 09:18:26 AM 39.8147 -72.4331 136° Southeast 488 562 28,500 1,200 Climbing New York Center
Fri 09:19:26 AM 39.7036 -72.3169 141° Southeast 496 571 29,600 1,250 Climbing New York Center
Fri 09:20:26 AM 39.5947 -72.2014 141° Southeast 510 587 31,000 1,700 Climbing New York Center
Fri 09:21:26 AM 39.4833 -72.0942 143° Southeast 510 587 33,000 1,550 Climbing New York Center
Fri 09:22:26 AM 39.3700 -71.9764 141° Southeast 510 587 34,100 1,050 Climbing New York Center
Fri 09:23:26 AM 39.2628 -71.8647 141° Southeast 510 587 35,100 1,150 Climbing New York Center
Fri 09:24:26 AM 39.1575 -71.7586 142° Southeast 505 581 36,400 950 Climbing New York Center
Fri 09:25:26 AM 39.0519 -71.6475 141° Southeast 505 581 37,000 300 Climbing New York Center
Fri 09:26:26 AM 38.9486 -71.5367 140° Southeast 494 568 37,000  Level New York Center
Fri 09:27:26 AM 38.8408 -71.4261 141° Southeast 494 568 37,000  Level New York Center
Fri 09:28:26 AM 38.7289 -71.3158 142° Southeast 499 574 37,000  Level New York Center
Fri 09:29:26 AM 38.6189 -71.1981 140° Southeast 504 580 37,000  Level New York Center
Fri 09:30:26 AM 38.5067 -71.0858 142° Southeast 510 587 37,000  Level New York Center
Fri 09:31:26 AM 38.3964 -70.9794 143° Southeast 510 587 37,000  Level New York Center
Fri 09:32:26 AM 38.2903 -70.8653 140° Southeast 505 581 37,000  Level New York Center
Fri 09:33:26 AM 38.1819 -70.7647 144° Southeast 500 575 37,000  Level New York Center
Fri 09:35:26 AM 37.9669 -70.5589 143° Southeast 483 556 37,000  Level New York Center
Fri 09:36:26 AM 37.8375 -70.5147 165° South 466 536 37,000  Level New York Center
Fri 09:37:26 AM 37.7331 -70.4125 142° Southeast 478 550 37,000  Level New York Center
Fri 09:38:27 AM 37.6161 -70.3394 154° Southeast 472 543 37,000  Level New York Center
Fri 09:39:26 AM 37.4989 -70.2694 155° Southeast 466 536 37,000  Level New York Center
Fri 09:40:26 AM 37.3839 -70.1917 152° Southeast 466 536 37,000  Level New York Center
Fri 09:41:26 AM 37.2878 -70.1350 155° Southeast 466 536 37,000  Level New York Center
Fri 09:42:26 AM 37.1622 -70.0578 154° Southeast 466 536 37,000  Level New York Center
Fri 09:54:08 AM 36.1667 -69.4500 143° Southeast 456 525 37,000  Level New York Oceanic (ODAPS)
Fri 10:04:02 AM 34.8086 -68.1808 144° Southeast 456 525 37,000  Level New York Center
Fri 10:05:00 AM 34.6443 -68.0413 143° Southeast 456 525 37,000  Level FlightAware Transoceanic
Fri 10:05:02 AM 34.7678 -68.0331 109° East 445 512 37,000  Level New York Center
Fri 10:06:00 AM 34.5423 -67.9493 143° Southeast 456 525 37,000  Level FlightAware Transoceanic
Fri 10:06:02 AM 34.6147 -68.0078 172° South 455 524 37,000  Level New York Center
Fri 10:07:00 AM 34.4401 -67.8575 143° Southeast 456 525 37,000  Level FlightAware Transoceanic
Fri 10:07:02 AM 34.5122 -67.9006 139° Southeast 447 514 37,000  Level New York Center
Fri 10:08:00 AM 34.3379 -67.7659 144° Southeast 456 525 37,000  Level FlightAware Transoceanic
Fri 10:08:02 AM 34.4100 -67.8133 145° Southeast 453 521 37,000  Level New York Center
Fri 10:09:02 AM 34.3142 -67.7339 146° Southeast 459 528 37,000  Level New York Center
Fri 10:10:02 AM 34.2053 -67.6350 143° Southeast 453 521 37,000  Level New York Center
Fri 10:11:03 AM 34.1158 -67.5681 148° Southeast 429 494 37,000  Level New York Center
Fri 10:12:02 AM 33.9839 -67.5433 171° South 418 481 37,000  Level New York Center
Fri 10:13:02 AM 33.8808 -67.5147 167° South 409 471 37,000  Level New York Center
Fri 10:14:02 AM 33.7739 -67.4964 172° South 412 474 37,000  Level New York Center
Fri 10:15:02 AM 33.6461 -67.4739 172° South 421 484 37,000  Level New York Center
Fri 10:16:02 AM 33.5350 -67.4508 170° South 413 475 37,000  Level New York Center
Fri 10:17:02 AM 33.4383 -67.4275 169° South 406 467 37,000  Level New York Center
Fri 10:18:02 AM 33.3086 -67.4028 171° South 422 486 37,000  Level New York Center
Fri 10:19:02 AM 33.2119 -67.3794 169° South 397 457 37,000  Level New York Center
Fri 10:20:02 AM 33.0883 -67.3544 170° South 409 471 37,000  Level New York Center
Fri 10:21:02 AM 32.9708 -67.3297 170° South 415 478 37,000  Level New York Center
Fri 10:22:02 AM 32.8681 -67.3114 171° South 424 488 37,000  Level New York Center
Fri 10:23:02 AM 32.7486 -67.2867 170° South 412 474 37,000  Level New York Center
Fri 10:24:02 AM 32.6311 -67.2619 170° South 417 480 37,000  Level New York Center
Fri 10:25:02 AM 32.5283 -67.2367 168° South 412 474 37,000  Level New York Center
Fri 10:26:02 AM 32.4025 -67.2125 171° South 422 486 37,000  Level New York Center
Fri 10:27:02 AM 32.2956 -67.1922 171° South 428 493 37,000  Level New York Center
Fri 10:28:02 AM 32.1739 -67.1656 169° South 416 479 37,000  Level New York Center
Fri 10:29:02 AM 32.0544 -67.1411 170° South 415 478 37,000  Level New York Center
Fri 10:30:02 AM 31.9558 -67.1208 170° South 415 478 37,000  Level New York Center
Fri 10:31:02 AM 31.8261 -67.0944 170° South 420 483 37,000  Level New York Center
Fri 10:32:02 AM 31.7128 -67.0725 171° South 414 476 37,000  Level New York Center
Fri 10:33:02 AM 31.6164 -67.0497 169° South 425 489 37,000  Level New York Center
Fri 10:34:02 AM 31.4908 -67.0283 172° South 417 480 37,000  Level New York Center
Fri 10:35:02 AM 31.3881 -67.0061 170° South 412 474 37,000  Level New York Center
Fri 10:36:02 AM 31.2600 -66.9800 170° South 422 486 37,000  Level New York Center
Fri 10:37:02 AM 31.1492 -66.9581 170° South 437 503 37,000  Level New York Center
Fri 10:38:02 AM 31.0422 -66.9336 169° South 427 491 37,000  Level New York Center
Fri 10:39:02 AM 30.9292 -66.9167 173° South 412 474 37,000  Level New York Center
Fri 10:40:02 AM 30.8181 -66.8903 168° South 414 476 37,000  Level New York Center
Fri 10:41:02 AM 30.6967 -66.8692 171° South 416 479 37,000  Level New York Center
Fri 10:42:02 AM 30.5878 -66.8497 171° South 411 473 37,000  Level New York Center
Fri 10:43:02 AM 30.4831 -66.8278 170° South 408 470 37,000  Level New York Center
Fri 10:44:02 AM 30.3594 -66.8022 170° South 417 480 37,000  Level New York Center
Fri 10:45:02 AM 30.2397 -66.7714 167° South 424 488 37,000  Level New York Center
Fri 10:46:02 AM 30.1394 -66.7567 173° South 424 488 37,000  Level New York Center
Fri 10:47:02 AM 30.0136 -66.7289 169° South 419 482 37,000  Level New York Center
Fri 11:45:56 AM 23.5000 -65.5333 165° South 473 544 37,000  Level New York Oceanic (ODAPS)
Fri 11:47:55 AM 22.3167 -65.2000 166° South 480 552 37,000  Level San Juan Center
Fri 11:48:00 AM 22.6637 -65.2962 165° South  Level FlightAware Approximate
Fri 11:48:55 AM 22.1833 -65.1500 161° South 490 564 37,000  Level San Juan Center
Fri 11:49:00 AM 22.5465 -65.2632 165° South  Level FlightAware Approximate
Fri 11:49:55 AM 22.0500 -65.1167 167° South 520 598 37,000  Level San Juan Center
Fri 11:50:00 AM 22.4270 -65.2296 165° South  Level FlightAware Approximate
Fri 11:50:56 AM 21.9167 -65.1333 187° South 480 552 37,000  Level San Juan Center
Fri 11:51:00 AM 22.3075 -65.1961 165° South  Level FlightAware Approximate
Fri 11:51:56 AM 21.7833 -65.1667 193° South 490 564 37,000  Level San Juan Center
Fri 11:52:00 AM 21.6786 -65.0186 166° South 473 544 37,000  Level FlightAware Transoceanic
Fri 11:52:57 AM 21.6500 -65.1667 180° South 490 564 37,000  Level San Juan Center
Fri 11:53:00 AM 21.5382 -64.9805 166° South 473 544 37,000  Level FlightAware Transoceanic
Fri 11:53:57 AM 21.5167 -65.1667 180° South 470 541 37,000  Level San Juan Center
Fri 11:54:57 AM 21.3667 -65.1833 186° South 470 541 37,000  Level San Juan Center
Fri 11:55:58 AM 21.2333 -65.1833 180° South 470 541 37,000  Level San Juan Center
Fri 11:57:03 AM 21.0667 -65.2000 185° South 510 587 37,000  Level San Juan Center
Fri 11:58:03 AM 20.9667 -65.2000 180° South 460 529 37,000  Level San Juan Center
Fri 11:59:03 AM 20.8333 -65.2167 187° South 490 564 37,000 -545 Level San Juan Center
Fri 12:00:04 PM 20.7000 -65.2167 180° South 490 564 35,900 -1,240 Descending San Juan Center
Fri 12:01:04 PM 20.5667 -65.2333 187° South 480 552 34,500 -1,700 Descending San Juan Center
Fri 12:02:04 PM 20.4000 -65.2500 185° South 490 564 32,500 -2,182 Descending San Juan Center
Fri 12:03:05 PM 20.2667 -65.2500 180° South 490 564 30,100 -2,231 Descending San Juan Center
Fri 12:04:05 PM 20.1333 -65.2667 187° South 480 552 28,000 -1,983 Descending San Juan Center
Fri 12:05:06 PM 20.0000 -65.2667 180° South 470 541 26,100 -1,934 Descending San Juan Center
Fri 12:06:06 PM 19.8667 -65.2833 187° South 450 518 24,100 -2,050 Descending San Juan Center
Fri 12:07:06 PM 19.7500 -65.2833 180° South 430 495 22,000 -1,884 Descending San Juan Center
Fri 12:08:07 PM 19.6333 -65.3000 188° South 430 495 20,300 -1,686 Descending San Juan Center
Fri 12:09:07 PM 19.5167 -65.3000 180° South 400 460 18,600 -1,800 Descending San Juan Center
Fri 12:10:07 PM 19.4167 -65.3000 180° South 380 437 16,700 -2,033 Descending San Juan Center
Fri 12:11:08 PM 19.3000 -65.3167 188° South 370 426 14,500 -2,182 Descending San Juan Center
Fri 12:12:08 PM 19.2000 -65.3167 180° South 370 426 12,300 -1,736 Descending San Juan Center
Fri 12:13:09 PM 19.1000 -65.3333 189° South 350 403 11,000 -645 Descending San Juan Center
Fri 12:14:09 PM 19.0000 -65.3333 180° South 350 403 11,000 -200 Level San Juan Center
Fri 12:15:09 PM 18.9000 -65.3333 180° South 350 403 10,600 -893 Descending San Juan Center
Fri 12:16:10 PM 18.8167 -65.3167 169° South 330 380 9,200 -1,190 Descending San Juan Center
Fri 12:17:10 PM 18.7333 -65.2833 159° South 300 345 8,200 -1,240 Descending San Juan Center
Fri 12:18:11 PM 18.6500 -65.2667 169° South 270 311 6,700 -1,686 Descending San Juan Center
Fri 12:19:11 PM 18.5833 -65.2500 167° South 260 299 4,800 -1,750 Descending San Juan Center
Fri 12:20:11 PM 18.5167 -65.2333 167° South 250 288 3,200 -992 Descending San Juan Center
Fri 12:21:12 PM 18.4500 -65.2167 167° South 250 288 2,800 -198 Descending San Juan Center
Fri 12:22:12 PM 18.3833 -65.2000 167° South 230 265 2,800 -50 Level San Juan Center
Fri 12:23:12 PM 18.3333 -65.1667 148° Southeast 220 253 2,700 -397 Descending San Juan Center
Fri 12:24:13 PM 18.3167 -65.1167 109° East 180 207 2,000 -545 Descending San Juan Center
Fri 12:25:13 PM 18.3167 -65.0667 90° East 170 196 1,600 -545 Descending San Juan Center
Fri 12:26:14 PM 18.3333 -65.0333 62° Northeast 140 161 900 -689 Descending San Juan Center

Login

Don't have an account? Register now (free) for customized features, flight alerts, and more!